sensor_id;sensor_type;location;lat;lon;timestamp;P1;durP1;ratioP1;P2;durP2;ratioP2
43793;SDS011;29414;44.798;20.366;2023-02-22T16:38:41;11.90;;;7.40;;
43793;SDS011;29414;44.798;20.366;2023-02-22T16:42:44;12.32;;;7.85;;
43793;SDS011;29414;44.798;20.366;2023-02-22T16:46:44;10.18;;;8.27;;
43793;SDS011;29414;44.798;20.366;2023-02-22T16:50:45;14.14;;;8.98;;
43793;SDS011;29414;44.798;20.366;2023-02-22T16:54:46;10.52;;;8.45;;
43793;SDS011;29414;44.798;20.366;2023-02-22T16:58:47;11.73;;;8.68;;
43793;SDS011;29414;44.798;20.366;2023-02-22T17:02:49;14.10;;;10.15;;
43793;SDS011;29414;44.798;20.366;2023-02-22T17:06:49;16.10;;;10.77;;
43793;SDS011;29414;44.798;20.366;2023-02-22T17:10:49;15.94;;;11.66;;
43793;SDS011;29414;44.798;20.366;2023-02-22T17:14:50;18.05;;;12.85;;
43793;SDS011;29414;44.798;20.366;2023-02-22T17:18:50;19.50;;;13.50;;
43793;SDS011;29414;44.798;20.366;2023-02-22T17:22:51;20.55;;;12.68;;
43793;SDS011;29414;44.798;20.366;2023-02-22T17:26:51;16.25;;;12.88;;
43793;SDS011;29414;44.798;20.366;2023-02-22T17:30:52;19.83;;;11.82;;
43793;SDS011;29414;44.798;20.366;2023-02-22T17:34:53;20.20;;;11.70;;
43793;SDS011;29414;44.798;20.366;2023-02-22T17:38:53;21.76;;;14.76;;
43793;SDS011;29414;44.798;20.366;2023-02-22T17:42:54;24.20;;;16.75;;
43793;SDS011;29414;44.798;20.366;2023-02-22T17:46:54;20.67;;;14.43;;
43793;SDS011;29414;44.798;20.366;2023-02-22T17:50:54;22.76;;;16.88;;
43793;SDS011;29414;44.798;20.366;2023-02-22T17:54:55;22.45;;;15.55;;
43793;SDS011;29414;44.798;20.366;2023-02-22T17:58:55;17.40;;;13.55;;
43793;SDS011;29414;44.798;20.366;2023-02-22T18:02:55;16.20;;;12.05;;
43793;SDS011;29414;44.798;20.366;2023-02-22T18:06:56;15.46;;;11.48;;
43793;SDS011;29414;44.798;20.366;2023-02-22T18:10:56;19.06;;;13.30;;
43793;SDS011;29414;44.798;20.366;2023-02-22T18:14:57;16.48;;;12.40;;
43793;SDS011;29414;44.798;20.366;2023-02-22T18:18:57;20.83;;;13.80;;
43793;SDS011;29414;44.798;20.366;2023-02-22T18:23:00;24.13;;;14.60;;
43793;SDS011;29414;44.798;20.366;2023-02-22T18:27:00;23.26;;;14.08;;
43793;SDS011;29414;44.798;20.366;2023-02-22T18:31:05;20.13;;;13.40;;
43793;SDS011;29414;44.798;20.366;2023-02-22T18:35:06;17.52;;;13.00;;
43793;SDS011;29414;44.798;20.366;2023-02-22T18:39:08;16.38;;;11.68;;
43793;SDS011;29414;44.798;20.366;2023-02-22T18:43:10;17.50;;;12.60;;
43793;SDS011;29414;44.798;20.366;2023-02-22T18:47:10;18.98;;;12.80;;
43793;SDS011;29414;44.798;20.366;2023-02-22T18:51:12;13.46;;;10.54;;
43793;SDS011;29414;44.798;20.366;2023-02-22T18:55:13;15.63;;;11.63;;
43793;SDS011;29414;44.798;20.366;2023-02-22T18:59:13;18.60;;;11.32;;
43793;SDS011;29414;44.798;20.366;2023-02-22T19:03:14;24.36;;;12.58;;
43793;SDS011;29414;44.798;20.366;2023-02-22T19:07:14;18.35;;;11.68;;
43793;SDS011;29414;44.798;20.366;2023-02-22T19:11:18;23.05;;;11.93;;
43793;SDS011;29414;44.798;20.366;2023-02-22T19:15:18;16.10;;;12.63;;
43793;SDS011;29414;44.798;20.366;2023-02-22T19:19:19;15.25;;;11.05;;
43793;SDS011;29414;44.798;20.366;2023-02-22T19:23:20;16.70;;;11.38;;
43793;SDS011;29414;44.798;20.366;2023-02-22T19:27:20;19.66;;;12.56;;
43793;SDS011;29414;44.798;20.366;2023-02-22T19:31:22;24.92;;;12.50;;
43793;SDS011;29414;44.798;20.366;2023-02-22T19:35:25;26.65;;;12.93;;
43793;SDS011;29414;44.798;20.366;2023-02-22T19:39:26;19.72;;;13.22;;
43793;SDS011;29414;44.798;20.366;2023-02-22T19:43:27;22.73;;;13.87;;
43793;SDS011;29414;44.798;20.366;2023-02-22T19:47:27;24.63;;;14.50;;
43793;SDS011;29414;44.798;20.366;2023-02-22T19:51:28;23.23;;;14.38;;
43793;SDS011;29414;44.798;20.366;2023-02-22T19:55:29;24.23;;;16.07;;
43793;SDS011;29414;44.798;20.366;2023-02-22T19:59:31;32.13;;;19.13;;
43793;SDS011;29414;44.798;20.366;2023-02-22T20:03:31;23.85;;;17.20;;
43793;SDS011;29414;44.798;20.366;2023-02-22T20:07:33;23.77;;;17.00;;
43793;SDS011;29414;44.798;20.366;2023-02-22T20:11:34;29.55;;;18.23;;
43793;SDS011;29414;44.798;20.366;2023-02-22T20:15:34;29.44;;;21.08;;
43793;SDS011;29414;44.798;20.366;2023-02-22T20:19:34;26.98;;;20.60;;
43793;SDS011;29414;44.798;20.366;2023-02-22T20:23:36;24.87;;;20.13;;
43793;SDS011;29414;44.798;20.366;2023-02-22T20:27:39;25.27;;;18.90;;
43793;SDS011;29414;44.798;20.366;2023-02-22T20:31:40;24.23;;;18.53;;
43793;SDS011;29414;44.798;20.366;2023-02-22T20:35:40;23.77;;;19.90;;
43793;SDS011;29414;44.798;20.366;2023-02-22T20:39:40;27.63;;;18.67;;
43793;SDS011;29414;44.798;20.366;2023-02-22T20:43:41;28.87;;;19.60;;
43793;SDS011;29414;44.798;20.366;2023-02-22T20:47:41;29.92;;;24.17;;
43793;SDS011;29414;44.798;20.366;2023-02-22T20:51:42;32.93;;;22.30;;
43793;SDS011;29414;44.798;20.366;2023-02-22T20:55:49;30.60;;;23.90;;
43793;SDS011;29414;44.798;20.366;2023-02-22T20:59:49;38.73;;;24.67;;
43793;SDS011;29414;44.798;20.366;2023-02-22T21:03:49;30.63;;;22.00;;
43793;SDS011;29414;44.798;20.366;2023-02-22T21:07:50;38.50;;;22.80;;
43793;SDS011;29414;44.798;20.366;2023-02-22T21:11:50;29.40;;;21.60;;
43793;SDS011;29414;44.798;20.366;2023-02-22T21:15:51;28.78;;;23.08;;
43793;SDS011;29414;44.798;20.366;2023-02-22T21:19:51;37.17;;;26.00;;
43793;SDS011;29414;44.798;20.366;2023-02-22T21:23:52;65.95;;;45.67;;
43793;SDS011;29414;44.798;20.366;2023-02-22T21:27:53;54.57;;;37.23;;
43793;SDS011;29414;44.798;20.366;2023-02-22T21:31:53;44.35;;;33.10;;
43793;SDS011;29414;44.798;20.366;2023-02-22T21:35:53;36.90;;;28.63;;
43793;SDS011;29414;44.798;20.366;2023-02-22T21:39:54;37.72;;;27.30;;
43793;SDS011;29414;44.798;20.366;2023-02-22T21:43:58;35.13;;;26.33;;
43793;SDS011;29414;44.798;20.366;2023-02-22T21:47:58;49.53;;;27.70;;
43793;SDS011;29414;44.798;20.366;2023-02-22T21:51:59;38.97;;;27.37;;
43793;SDS011;29414;44.798;20.366;2023-02-22T21:56:03;38.83;;;26.67;;
43793;SDS011;29414;44.798;20.366;2023-02-22T22:00:04;36.90;;;27.10;;
43793;SDS011;29414;44.798;20.366;2023-02-22T22:04:18;37.17;;;27.20;;
43793;SDS011;29414;44.798;20.366;2023-02-22T22:08:21;37.30;;;28.27;;
43793;SDS011;29414;44.798;20.366;2023-02-22T22:12:24;39.83;;;30.03;;
43793;SDS011;29414;44.798;20.366;2023-02-22T22:16:26;38.43;;;30.27;;
43793;SDS011;29414;44.798;20.366;2023-02-22T22:20:27;59.53;;;46.27;;
43793;SDS011;29414;44.798;20.366;2023-02-22T22:24:31;47.13;;;34.47;;
43793;SDS011;29414;44.798;20.366;2023-02-22T22:28:33;55.10;;;36.87;;
43793;SDS011;29414;44.798;20.366;2023-02-22T22:32:33;50.33;;;33.25;;
43793;SDS011;29414;44.798;20.366;2023-02-22T22:36:33;56.20;;;33.67;;
43793;SDS011;29414;44.798;20.366;2023-02-22T22:40:35;39.60;;;30.17;;
43793;SDS011;29414;44.798;20.366;2023-02-22T22:44:37;52.97;;;33.93;;
43793;SDS011;29414;44.798;20.366;2023-02-22T22:48:41;54.17;;;41.23;;
43793;SDS011;29414;44.798;20.366;2023-02-22T22:52:41;57.50;;;35.67;;
43793;SDS011;29414;44.798;20.366;2023-02-22T22:56:42;49.85;;;33.75;;
43793;SDS011;29414;44.798;20.366;2023-02-22T23:00:42;51.65;;;38.25;;
43793;SDS011;29414;44.798;20.366;2023-02-22T23:04:48;51.07;;;35.03;;
43793;SDS011;29414;44.798;20.366;2023-02-22T23:08:59;43.80;;;32.63;;
43793;SDS011;29414;44.798;20.366;2023-02-22T23:13:00;55.07;;;33.90;;
43793;SDS011;29414;44.798;20.366;2023-02-22T23:17:01;51.30;;;34.70;;
43793;SDS011;29414;44.798;20.366;2023-02-22T23:21:03;56.23;;;40.23;;
43793;SDS011;29414;44.798;20.366;2023-02-22T23:25:04;55.80;;;38.87;;
43793;SDS011;29414;44.798;20.366;2023-02-22T23:29:05;55.43;;;37.60;;
43793;SDS011;29414;44.798;20.366;2023-02-22T23:33:07;46.47;;;33.80;;
43793;SDS011;29414;44.798;20.366;2023-02-22T23:37:08;47.43;;;34.27;;
43793;SDS011;29414;44.798;20.366;2023-02-22T23:41:10;46.73;;;33.07;;
43793;SDS011;29414;44.798;20.366;2023-02-22T23:45:10;41.97;;;32.23;;
43793;SDS011;29414;44.798;20.366;2023-02-22T23:49:24;44.77;;;30.80;;
43793;SDS011;29414;44.798;20.366;2023-02-22T23:53:25;42.30;;;30.20;;
43793;SDS011;29414;44.798;20.366;2023-02-22T23:57:25;36.10;;;29.03;;
